createdAt,value
2022-09-01T00:00:52.608Z,55.53031
2022-09-01T00:05:54.254Z,55.44499
2022-09-01T00:10:56.122Z,53.96323
2022-09-01T00:15:57.979Z,56.33559
2022-09-01T00:20:59.947Z,56.04759
2022-09-01T00:26:02.031Z,56.45703
2022-09-01T00:31:03.727Z,58.17003
2022-09-01T00:36:05.543Z,59.3036
2022-09-01T00:41:07.749Z,59.414
2022-09-01T00:46:09.559Z,57.9409
2022-09-01T00:51:12.013Z,57.13787
2022-09-01T00:56:14.104Z,57.02261
2022-09-01T01:01:16.140Z,57.06828
2022-09-01T01:06:18.054Z,58.24787
2022-09-01T01:11:20.832Z,58.53237
2022-09-01T01:16:22.330Z,61.29874
2022-09-01T01:21:24.107Z,60.09912
2022-09-01T01:26:26.027Z,59.25741
2022-09-01T01:31:27.810Z,58.80347
2022-09-01T01:36:29.239Z,60.18892
2022-09-01T01:41:31.071Z,61.04895
2022-09-01T01:46:32.899Z,65.01193
2022-09-01T01:51:34.566Z,63.21825
2022-09-01T01:56:36.485Z,63.71281
2022-09-01T02:01:38.290Z,63.07967
2022-09-01T02:06:40.187Z,65.24002
2022-09-01T02:11:42.952Z,65.33516
2022-09-01T02:16:44.933Z,68.72539
2022-09-01T02:21:46.436Z,66.71116
2022-09-01T02:26:48.481Z,69.20902
2022-09-01T02:31:50.004Z,66.7078
2022-09-01T02:36:51.615Z,68.59306
2022-09-01T02:41:53.721Z,69.81283
2022-09-01T02:46:55.234Z,69.34499
2022-09-01T02:51:57.585Z,68.05111
2022-09-01T02:56:59.564Z,68.71982
2022-09-01T03:02:01.484Z,71.45861
2022-09-01T03:07:03.201Z,69.17748
2022-09-01T03:12:05.698Z,70.95013
2022-09-01T03:17:07.529Z,70.77932
2022-09-01T03:22:08.981Z,69.56855
2022-09-01T03:27:10.866Z,70.47691
2022-09-01T03:32:12.588Z,72.67328
2022-09-01T03:37:14.565Z,70.5907
2022-09-01T03:42:16.359Z,72.99167
2022-09-01T03:47:18.298Z,71.12432
2022-09-01T03:52:20.150Z,73.70973
2022-09-01T03:57:21.796Z,71.60723
2022-09-01T04:02:23.307Z,73.35671
2022-09-01T04:07:26.946Z,74.23957
2022-09-01T04:12:29.027Z,73.82402
2022-09-01T04:17:30.772Z,72.50865
2022-09-01T04:22:32.894Z,72.22868
2022-09-01T04:27:34.765Z,72.21494
2022-09-01T04:32:36.822Z,72.21761
2022-09-01T04:37:38.946Z,71.77489
2022-09-01T04:42:41.170Z,74.20373
2022-09-01T04:47:43.389Z,72.1781
2022-09-01T04:52:45.186Z,74.246
2022-09-01T04:57:47.023Z,72.57731
2022-09-01T05:02:48.778Z,72.71605
2022-09-01T05:07:55.286Z,73.08375
2022-09-01T05:12:57.535Z,73.44637
2022-09-01T05:17:59.344Z,73.75916
2022-09-01T05:23:01.811Z,71.78356
2022-09-01T05:28:03.818Z,74.4184
2022-09-01T05:33:05.527Z,73.03568
2022-09-01T05:38:07.479Z,70.56037
2022-09-01T05:43:09.843Z,71.33944
2022-09-01T05:48:11.804Z,74.32367
2022-09-01T05:53:13.575Z,73.57172
2022-09-01T05:58:16.075Z,71.89453
2022-09-01T06:03:17.825Z,71.74018
2022-09-01T06:08:19.908Z,70.41007
2022-09-01T06:13:22.267Z,71.66421
2022-09-01T06:18:29.225Z,67.95
2022-09-01T06:23:30.682Z,68.75589
2022-09-01T06:28:32.529Z,67.32106
2022-09-01T06:33:33.941Z,64.25243
2022-09-01T06:38:35.727Z,64.24329
2022-09-01T06:43:37.911Z,62.61005
2022-09-01T06:48:39.780Z,61.57514
2022-09-01T06:53:41.950Z,59.36914
2022-09-01T06:58:43.880Z,59.43951
2022-09-01T07:03:45.896Z,55.30639
2022-09-01T07:14:20.356Z,54.4939
2022-09-01T07:19:22.413Z,55.90132
2022-09-01T07:24:29.407Z,53.08596
2022-09-01T07:29:33.269Z,51.86631
2022-09-01T07:34:39.058Z,52.91412
2022-09-01T07:39:48.606Z,48.97513
2022-09-01T07:44:51.597Z,50.43322
2022-09-01T07:50:24.143Z,50.65981
2022-09-01T07:55:26.582Z,49.00077
2022-09-01T08:00:31.134Z,47.65362
2022-09-01T08:05:33.867Z,47.54745
2022-09-01T08:10:36.882Z,47.40347
2022-09-01T08:15:41.375Z,45.14114
2022-09-01T08:21:08.431Z,45.57005
2022-09-01T08:26:10.643Z,43.33111
2022-09-01T08:31:12.889Z,44.51223
2022-09-01T08:36:14.856Z,43.60204
2022-09-01T08:41:16.984Z,41.03717
2022-09-01T08:46:19.420Z,41.80815
2022-09-01T08:51:21.395Z,40.57666
2022-09-01T08:56:23.464Z,42.21167
2022-09-01T09:01:24.999Z,38.60218
2022-09-01T09:06:26.483Z,38.75029
2022-09-01T09:11:28.057Z,37.95687
2022-09-01T09:16:30.182Z,39.46804
2022-09-01T09:21:31.788Z,38.75466
2022-09-01T09:26:42.664Z,38.96495
2022-09-01T09:31:45.882Z,35.50344
2022-09-01T09:36:54.516Z,35.3826
2022-09-01T09:41:57.792Z,36.79856
2022-09-01T09:47:00.699Z,39.87888
2022-09-01T09:52:02.533Z,35.73828
2022-09-01T09:57:04.860Z,34.67493
2022-09-01T10:02:06.717Z,35.35717
2022-09-01T10:07:08.658Z,34.17762
2022-09-01T10:12:10.623Z,34.90836
2022-09-01T10:17:13.203Z,32.53022
2022-09-01T10:22:16.909Z,32.80467
2022-09-01T10:27:18.793Z,31.47898
2022-09-01T10:32:35.063Z,32.74361
2022-09-01T10:37:39.156Z,32.6398
2022-09-01T10:42:45.323Z,32.89972
2022-09-01T10:47:48.112Z,31.83965
2022-09-01T10:52:51.239Z,33.07178
2022-09-01T10:57:53.390Z,32.44942
2022-09-01T11:02:55.262Z,32.12519
2022-09-01T11:08:01.303Z,31.62154
2022-09-01T11:13:03.897Z,30.09068
2022-09-01T11:18:06.847Z,30.12904
2022-09-01T11:23:08.312Z,30.57718
2022-09-01T11:28:10.654Z,29.3768
2022-09-01T11:33:12.265Z,29.78427
2022-09-01T11:38:13.934Z,29.21476
2022-09-01T11:43:16.582Z,30.88399
2022-09-01T11:48:18.962Z,28.01707
2022-09-01T11:53:20.520Z,28.27008
2022-09-01T11:58:22.346Z,29.18898
2022-09-01T12:03:24.398Z,27.8085
2022-09-01T12:08:26.640Z,26.35667
2022-09-01T12:13:28.134Z,26.69772
2022-09-01T12:18:30.166Z,27.14839
2022-09-01T12:23:31.708Z,27.03008
2022-09-01T12:28:33.280Z,25.15241
2022-09-01T12:33:35.312Z,25.45906
2022-09-01T12:38:37.265Z,25.10807
2022-09-01T12:43:38.727Z,23.90087
2022-09-01T12:48:40.435Z,24.17926
2022-09-01T12:53:42.588Z,23.5228
2022-09-01T12:58:44.169Z,22.77872
2022-09-01T13:03:45.752Z,23.46314
2022-09-01T13:08:47.351Z,22.99328
2022-09-01T13:13:48.791Z,22.5872
2022-09-01T13:19:11.802Z,23.70095
2022-09-01T13:24:14.756Z,23.32639
2022-09-01T13:29:16.778Z,24.05313
2022-09-01T13:34:18.667Z,24.29929
2022-09-01T13:39:25.462Z,24.04364
2022-09-01T13:44:27.065Z,24.95225
2022-09-01T13:50:06.100Z,25.4388
2022-09-01T13:55:09.503Z,26.13844
2022-09-01T14:00:11.619Z,25.34807
2022-09-01T14:05:13.449Z,25.0941
2022-09-01T14:10:15.212Z,26.02355
2022-09-01T14:15:18.065Z,26.85079
2022-09-01T14:20:22.827Z,26.10946
2022-09-01T14:25:24.786Z,26.93431
2022-09-01T14:30:31.011Z,27.55167
2022-09-01T14:35:33.662Z,27.45489
2022-09-01T14:40:35.910Z,27.6383
2022-09-01T14:45:37.453Z,27.43317
2022-09-01T14:50:39.843Z,28.07743
2022-09-01T14:55:44.133Z,28.53327
2022-09-01T15:00:46.090Z,28.82432
2022-09-01T15:05:48.019Z,28.88699
2022-09-01T15:10:49.909Z,28.52043
2022-09-01T15:15:51.843Z,29.01346
2022-09-01T15:20:53.553Z,29.82679
2022-09-01T15:25:55.226Z,30.225
2022-09-01T15:30:56.996Z,30.83805
2022-09-01T15:35:58.825Z,31.06859
2022-09-01T15:41:00.635Z,32.08008
2022-09-01T15:46:02.477Z,33.06572
2022-09-01T15:51:04.596Z,33.27226
2022-09-01T15:56:06.291Z,34.30298
2022-09-01T16:01:08.393Z,34.83294
2022-09-01T16:06:10.479Z,34.92204
2022-09-01T16:11:12.282Z,36.09636
2022-09-01T16:16:14.332Z,36.42936
2022-09-01T16:21:17.074Z,37.10992
2022-09-01T16:26:18.863Z,38.7535
2022-09-01T16:31:20.696Z,40.10832
2022-09-01T16:36:22.224Z,40.87261
2022-09-01T16:41:23.901Z,41.78234
2022-09-01T16:46:25.911Z,41.33944
2022-09-01T16:51:28.218Z,40.23177
2022-09-01T16:56:29.793Z,41.07151
2022-09-01T17:01:31.309Z,40.93815
2022-09-01T17:06:32.969Z,41.94697
2022-09-01T17:11:34.512Z,41.97547
2022-09-01T17:16:36.019Z,43.45256
2022-09-01T17:21:37.862Z,43.70924
2022-09-01T17:26:39.454Z,43.0079
2022-09-01T17:31:41.274Z,42.66681
2022-09-01T17:36:46.823Z,43.54312
2022-09-01T17:41:48.661Z,42.79706
2022-09-01T17:46:50.449Z,41.65837
2022-09-01T17:51:52.290Z,41.42279
2022-09-01T17:56:53.911Z,40.3596
2022-09-01T18:01:55.524Z,40.48956
2022-09-01T18:06:57.308Z,41.04817
2022-09-01T18:11:58.849Z,41.33503
2022-09-01T18:17:00.603Z,41.16747
2022-09-01T18:22:03.432Z,41.49547
2022-09-01T18:27:04.859Z,41.44499
2022-09-01T18:32:06.599Z,41.46897
2022-09-01T18:37:08.143Z,40.0214
2022-09-01T18:42:09.653Z,40.09378
2022-09-01T18:47:13.684Z,40.10907
2022-09-01T18:52:16.001Z,40.16652
2022-09-01T18:57:17.516Z,41.00784
2022-09-01T19:02:19.699Z,40.83512
2022-09-01T19:07:21.772Z,41.36857
2022-09-01T19:12:23.597Z,41.44923
2022-09-01T19:17:25.188Z,42.10469
2022-09-01T19:22:27.074Z,42.77067
2022-09-01T19:27:28.543Z,43.02186
2022-09-01T19:32:30.272Z,43.59382
2022-09-01T19:37:31.950Z,44.83741
2022-09-01T19:42:33.456Z,46.35046
2022-09-01T19:47:35.148Z,47.50268
2022-09-01T19:52:37.191Z,47.40093
2022-09-01T19:57:38.644Z,48.67983
2022-09-01T20:02:40.393Z,48.8537
2022-09-01T20:07:42.319Z,48.13455
2022-09-01T20:12:44.357Z,47.65497
2022-09-01T20:17:46.089Z,45.11191
2022-09-01T20:22:48.059Z,45.2546
2022-09-01T20:27:49.816Z,44.86179
2022-09-01T20:32:51.729Z,47.40636
2022-09-01T20:37:53.785Z,49.66263
2022-09-01T20:42:55.651Z,50.38393
2022-09-01T20:47:58.023Z,50.18091
2022-09-01T20:53:00.793Z,50.61637
2022-09-01T20:58:02.336Z,51.09272
2022-09-01T21:03:04.324Z,51.34094
2022-09-01T21:08:06.402Z,50.79954
2022-09-01T21:13:08.112Z,51.33704
2022-09-01T21:18:09.974Z,52.2043
2022-09-01T21:23:12.615Z,52.20558
2022-09-01T21:28:14.197Z,51.73342
2022-09-01T21:33:15.951Z,52.13099
2022-09-01T21:38:17.821Z,52.90883
2022-09-01T21:43:19.773Z,52.2945
2022-09-01T21:48:21.645Z,53.13375
2022-09-01T21:53:24.691Z,53.08712
2022-09-01T21:58:26.657Z,54.51973
2022-09-01T22:03:28.124Z,54.60643
2022-09-01T22:08:29.975Z,54.58244
2022-09-01T22:13:31.595Z,55.35431
2022-09-01T22:18:33.328Z,54.19528
2022-09-01T22:23:35.187Z,53.59813
2022-09-01T22:28:37.026Z,53.61449
2022-09-01T22:33:38.734Z,53.86046
2022-09-01T22:38:40.643Z,55.96524
2022-09-01T22:43:42.127Z,54.54107
2022-09-01T22:48:43.847Z,54.49621
2022-09-01T22:53:45.882Z,55.2544
2022-09-01T22:58:48.227Z,55.04932
2022-09-01T23:03:49.993Z,55.54832
2022-09-01T23:08:54.115Z,55.67201
2022-09-01T23:13:55.770Z,56.3394
2022-09-01T23:18:58.176Z,56.5372
2022-09-01T23:24:00.271Z,56.0986
2022-09-01T23:29:02.141Z,56.92466
2022-09-01T23:34:03.987Z,56.31522
2022-09-01T23:39:05.788Z,56.30831
2022-09-01T23:44:07.558Z,55.66512
2022-09-01T23:49:09.369Z,54.41262
2022-09-01T23:54:11.388Z,53.9708
2022-09-01T23:59:13.369Z,54.90891
